CheckWX is a tool to help pilots better visualize weather data.  It is not intended as a substitute for an official pre-flight weather briefing.

17:10:41 UTC

KVCT TAF
Victoria Regional Airport
Victoria, Texas, USA
KVCT 181135Z 1812/1912 12004KT P6SM SCT015 TEMPO 1812/1815 6SM BR BKN015 FM181900 15010KT P6SM SCT035 FM190100 15009KT P6SM SCT250 FM191000 16005KT P6SM BKN025

Jun-18@
12:00 UTC

Jun-18 @ 12:00 UTC

Jun-18@
19:00 UTC

Jun-18 @ 19:00 UTC

KVCT 181135Z 1812/1912 12004KT P6SM SCT015
Wind
  • 120° at 4 KTS
Cloud Levels
  • Scattered at 1,500' AGL

Jun-18@
12:00 UTC

Jun-18 @ 12:00 UTC

Jun-18@
15:00 UTC

Jun-18 @ 15:00 UTC

TEMPO 1812/1815 6SM BR BKN015

Expired

Conditions
Mist
Cloud Levels
  • Broken at 1,500' AGL

Jun-18@
19:00 UTC

Jun-18 @ 19:00 UTC

Jun-19@
01:00 UTC

Jun-19 @ 01:00 UTC

FM181900 15010KT P6SM SCT035

From

From Standard forecast or significant change

Wind
  • 150° at 10 KTS
Cloud Levels
  • Scattered at 3,500' AGL

Jun-19@
01:00 UTC

Jun-19 @ 01:00 UTC

Jun-19@
10:00 UTC

Jun-19 @ 10:00 UTC

FM190100 15009KT P6SM SCT250

From

From Standard forecast or significant change

Wind
  • 150° at 9 KTS
Cloud Levels
  • Scattered at 25,000' AGL

Jun-19@
10:00 UTC

Jun-19 @ 10:00 UTC

Jun-19@
12:00 UTC

Jun-19 @ 12:00 UTC

FM191000 16005KT P6SM BKN025

From

From Standard forecast or significant change

Wind
  • 160° at 5 KTS
Cloud Levels
  • Broken at 2,500' AGL